createdAt,value
2019-03-03T00:01:44.934Z,9.10
2019-03-03T00:04:15.217Z,9.15
2019-03-03T00:06:45.503Z,9.15
2019-03-03T00:09:15.879Z,9.14
2019-03-03T00:11:46.747Z,9.22
2019-03-03T00:14:17.020Z,9.29
2019-03-03T00:16:47.233Z,9.34
2019-03-03T00:19:17.510Z,9.34
2019-03-03T00:21:49.692Z,9.30
2019-03-03T00:24:20.009Z,9.28
2019-03-03T00:26:50.781Z,9.25
2019-03-03T00:29:21.374Z,9.21
2019-03-03T00:31:51.647Z,9.25
2019-03-03T00:34:22.221Z,9.21
2019-03-03T00:37:10.329Z,9.20
2019-03-03T00:40:11.955Z,9.17
2019-03-03T00:42:53.975Z,9.13
2019-03-03T00:45:35.040Z,9.14
2019-03-03T00:48:20.845Z,9.22
2019-03-03T00:51:09.132Z,9.18
2019-03-03T00:54:05.068Z,9.08
2019-03-03T00:56:44.631Z,9.02
2019-03-03T00:59:34.507Z,8.99
2019-03-03T01:02:14.850Z,9.00
2019-03-03T01:05:04.117Z,8.96
2019-03-03T01:07:52.070Z,8.76
2019-03-03T01:10:48.208Z,8.54
2019-03-03T01:13:28.260Z,8.28
2019-03-03T01:16:20.888Z,8.05
2019-03-03T01:18:59.303Z,8.05
2019-03-03T01:21:37.851Z,8.20
2019-03-03T01:24:30.100Z,8.26
2019-03-03T01:27:00.691Z,8.37
2019-03-03T01:29:30.902Z,8.47
2019-03-03T01:32:02.345Z,8.36
2019-03-03T01:34:33.206Z,8.26
2019-03-03T01:37:04.859Z,8.38
2019-03-03T01:39:35.689Z,8.45
2019-03-03T01:42:05.899Z,8.60
2019-03-03T01:44:36.164Z,8.66
2019-03-03T01:47:06.483Z,8.75
2019-03-03T01:49:37.703Z,8.81
2019-03-03T01:52:08.972Z,8.82
2019-03-03T01:54:39.179Z,8.87
2019-03-03T01:57:09.436Z,8.86
2019-03-03T01:59:39.713Z,8.81
2019-03-03T02:02:10.090Z,8.74
2019-03-03T02:04:40.359Z,8.63
2019-03-03T02:07:10.973Z,8.43
2019-03-03T02:09:41.624Z,8.26
2019-03-03T02:12:12.009Z,8.05
2019-03-03T02:14:42.356Z,7.91
2019-03-03T02:17:13.799Z,7.76
2019-03-03T02:19:45.023Z,7.68
2019-03-03T02:22:15.923Z,7.49
2019-03-03T02:24:46.141Z,7.41
2019-03-03T02:27:16.406Z,7.32
2019-03-03T02:29:46.611Z,7.20
2019-03-03T02:32:16.843Z,7.22
2019-03-03T02:34:47.286Z,7.35
2019-03-03T02:37:17.773Z,7.52
2019-03-03T02:39:48.611Z,7.79
2019-03-03T02:42:19.458Z,7.91
2019-03-03T02:44:50.461Z,8.01
2019-03-03T02:47:20.758Z,8.10
2019-03-03T02:49:51.015Z,8.17
2019-03-03T02:52:21.289Z,8.17
2019-03-03T02:54:51.576Z,8.29
2019-03-03T02:57:21.837Z,8.39
2019-03-03T02:59:52.335Z,8.48
2019-03-03T03:02:40.892Z,8.51
2019-03-03T03:05:11.290Z,8.51
2019-03-03T03:07:49.653Z,8.53
2019-03-03T03:10:29.424Z,8.52
2019-03-03T03:13:07.615Z,8.52
2019-03-03T03:15:49.867Z,8.54
2019-03-03T03:19:56.755Z,8.69
2019-03-03T03:22:46.225Z,8.75
2019-03-03T03:25:26.676Z,8.67
2019-03-03T03:28:10.495Z,8.50
2019-03-03T03:31:03.305Z,8.39
2019-03-03T03:34:11.277Z,8.29
2019-03-03T03:37:03.316Z,8.24
2019-03-03T03:39:50.006Z,8.27
2019-03-03T03:42:26.856Z,8.32
2019-03-03T03:45:16.099Z,8.28
2019-03-03T03:48:15.001Z,8.22
2019-03-03T03:50:52.226Z,8.14
2019-03-03T03:53:41.383Z,8.07
2019-03-03T03:56:19.195Z,8.07
2019-03-03T03:59:14.213Z,7.99
2019-03-03T04:01:58.613Z,7.99
2019-03-03T04:04:53.799Z,7.92
2019-03-03T04:07:30.212Z,7.92
2019-03-03T04:10:06.353Z,7.90
2019-03-03T04:13:00.469Z,7.94
2019-03-03T04:16:01.836Z,7.95
2019-03-03T04:18:49.714Z,7.89
2019-03-03T04:21:29.876Z,7.72
2019-03-03T04:24:22.767Z,7.45
2019-03-03T04:27:21.274Z,7.45
2019-03-03T04:30:10.398Z,7.40
2019-03-03T04:32:51.199Z,7.19
2019-03-03T04:35:43.900Z,7.00
2019-03-03T04:38:20.087Z,6.96
2019-03-03T04:41:02.627Z,6.92
2019-03-03T04:43:58.299Z,6.78
2019-03-03T04:46:56.615Z,6.71
2019-03-03T04:49:48.973Z,7.04
2019-03-03T04:52:26.764Z,7.18
2019-03-03T04:55:15.988Z,7.20
2019-03-03T04:58:05.626Z,7.24
2019-03-03T05:00:55.235Z,7.39
2019-03-03T05:03:59.877Z,7.48
2019-03-03T05:06:35.152Z,7.44
2019-03-03T05:09:22.154Z,7.28
2019-03-03T05:12:48.949Z,7.38
2019-03-03T05:15:35.956Z,7.64
2019-03-03T05:18:15.998Z,7.48
2019-03-03T05:20:48.331Z,7.29
2019-03-03T05:23:18.514Z,7.06
2019-03-03T05:25:48.796Z,6.86
2019-03-03T05:28:19.189Z,6.72
2019-03-03T05:30:49.668Z,6.54
2019-03-03T05:33:19.971Z,6.40
2019-03-03T05:35:50.635Z,6.29
2019-03-03T05:38:20.871Z,6.21
2019-03-03T05:40:51.514Z,6.38
2019-03-03T05:43:22.154Z,6.31
2019-03-03T05:45:52.787Z,6.22
2019-03-03T05:48:24.181Z,6.15
2019-03-03T05:50:54.457Z,6.35
2019-03-03T05:53:25.090Z,6.29
2019-03-03T05:55:55.768Z,6.15
2019-03-03T05:58:26.401Z,6.06
2019-03-03T06:00:57.296Z,5.98
2019-03-03T06:03:28.087Z,5.83
2019-03-03T06:05:58.769Z,5.67
2019-03-03T06:08:29.414Z,5.65
2019-03-03T06:10:59.737Z,5.63
2019-03-03T06:13:30.408Z,5.62
2019-03-03T06:16:00.631Z,5.58
2019-03-03T06:18:31.413Z,5.57
2019-03-03T06:21:03.588Z,5.55
2019-03-03T06:23:34.000Z,5.54
2019-03-03T06:26:04.261Z,5.59
2019-03-03T06:28:34.630Z,5.58
2019-03-03T06:31:04.935Z,5.64
2019-03-03T06:33:35.535Z,5.66
2019-03-03T06:36:05.765Z,5.64
2019-03-03T06:38:36.467Z,5.72
2019-03-03T06:41:07.691Z,5.74
2019-03-03T06:43:38.571Z,5.84
2019-03-03T06:46:09.491Z,6.13
2019-03-03T06:48:39.824Z,6.28
2019-03-03T06:51:10.082Z,6.32
2019-03-03T06:53:40.666Z,6.37
2019-03-03T06:56:11.543Z,6.39
2019-03-03T06:58:42.548Z,6.38
2019-03-03T07:01:13.988Z,6.43
2019-03-03T07:03:44.856Z,6.49
2019-03-03T07:06:15.103Z,6.53
2019-03-03T07:08:46.406Z,6.53
2019-03-03T07:11:16.591Z,6.60
2019-03-03T07:13:46.890Z,6.72
2019-03-03T07:16:17.488Z,6.78
2019-03-03T07:18:48.761Z,6.76
2019-03-03T07:21:19.681Z,6.83
2019-03-03T07:23:50.108Z,6.90
2019-03-03T07:26:21.455Z,6.99
2019-03-03T07:28:51.791Z,7.08
2019-03-03T07:31:22.060Z,7.16
2019-03-03T07:33:55.543Z,7.27
2019-03-03T07:36:25.854Z,7.38
2019-03-03T07:38:56.132Z,7.52
2019-03-03T07:41:27.802Z,7.61
2019-03-03T07:43:58.138Z,7.67
2019-03-03T07:46:28.379Z,7.73
2019-03-03T07:48:58.570Z,7.81
2019-03-03T07:51:29.672Z,7.92
2019-03-03T07:54:00.245Z,8.06
2019-03-03T07:56:30.939Z,8.22
2019-03-03T07:59:01.922Z,8.49
2019-03-03T08:01:33.060Z,8.84
2019-03-03T08:04:03.296Z,9.16
2019-03-03T08:06:33.606Z,9.75
2019-03-03T08:09:05.314Z,9.75
2019-03-03T08:11:36.054Z,9.81
2019-03-03T08:14:06.308Z,9.87
2019-03-03T08:16:37.262Z,9.96
2019-03-03T08:19:08.203Z,10.06
2019-03-03T08:21:38.375Z,10.12
2019-03-03T08:24:08.631Z,10.23
2019-03-03T08:26:39.264Z,10.35
2019-03-03T08:29:09.587Z,10.37
2019-03-03T08:31:39.757Z,10.35
2019-03-03T08:34:10.346Z,10.30
2019-03-03T08:36:40.883Z,10.35
2019-03-03T08:39:11.395Z,10.33
2019-03-03T08:41:46.447Z,10.39
2019-03-03T08:44:19.685Z,10.41
2019-03-03T08:47:08.114Z,10.51
2019-03-03T08:50:09.318Z,10.61
2019-03-03T08:53:08.391Z,10.61
2019-03-03T08:56:03.525Z,10.73
2019-03-03T08:59:05.102Z,10.85
2019-03-03T09:02:04.956Z,10.96
2019-03-03T09:04:46.447Z,11.04
2019-03-03T09:07:38.812Z,11.18
2019-03-03T09:10:14.952Z,11.32
2019-03-03T09:12:57.648Z,11.38
2019-03-03T09:15:43.048Z,11.48
2019-03-03T09:18:28.783Z,11.59
2019-03-03T09:21:18.007Z,11.63
2019-03-03T09:24:02.539Z,11.89
2019-03-03T09:26:46.506Z,12.04
2019-03-03T09:29:35.008Z,12.40
2019-03-03T09:32:14.216Z,12.59
2019-03-03T09:35:18.844Z,12.75
2019-03-03T09:38:10.887Z,13.23
2019-03-03T09:40:47.272Z,13.63
2019-03-03T09:43:42.278Z,13.60
2019-03-03T09:46:22.479Z,13.41
2019-03-03T09:49:12.006Z,13.39
2019-03-03T09:52:10.274Z,13.19
2019-03-03T09:54:53.541Z,13.21
2019-03-03T09:57:48.506Z,13.50
2019-03-03T10:00:43.676Z,13.72
2019-03-03T10:03:39.350Z,13.89
2019-03-03T10:06:41.116Z,14.33
2019-03-03T10:09:18.316Z,15.13
2019-03-03T10:12:03.226Z,16.20
2019-03-03T10:14:41.800Z,16.13
2019-03-03T10:17:30.129Z,16.59
2019-03-03T10:20:18.010Z,17.43
2019-03-03T10:23:06.389Z,17.22
2019-03-03T10:25:54.504Z,17.24
2019-03-03T10:28:33.572Z,17.16
2019-03-03T10:31:15.940Z,16.29
2019-03-03T10:34:11.643Z,15.83
2019-03-03T10:36:48.540Z,17.13
2019-03-03T10:39:35.092Z,18.91
2019-03-03T10:42:23.440Z,19.40
2019-03-03T10:45:18.588Z,19.49
2019-03-03T10:48:13.931Z,20.05
2019-03-03T10:51:09.340Z,20.97
2019-03-03T10:53:45.797Z,20.91
2019-03-03T10:56:47.811Z,20.43
2019-03-03T10:59:35.366Z,20.43
2019-03-03T11:02:24.773Z,19.27
2019-03-03T11:05:26.475Z,18.96
2019-03-03T11:08:16.250Z,18.46
2019-03-03T11:11:00.401Z,18.60
2019-03-03T11:13:38.864Z,18.71
2019-03-03T11:16:24.729Z,19.76
2019-03-03T11:19:17.359Z,21.04
2019-03-03T11:22:12.771Z,21.72
2019-03-03T11:24:52.823Z,21.51
2019-03-03T11:27:43.903Z,22.28
2019-03-03T11:30:29.534Z,22.97
2019-03-03T11:33:17.759Z,23.17
2019-03-03T11:36:25.349Z,22.18
2019-03-03T11:39:14.946Z,21.49
2019-03-03T11:41:53.249Z,20.61
2019-03-03T11:44:41.650Z,21.95
2019-03-03T11:47:24.573Z,20.32
2019-03-03T11:50:16.958Z,19.53
2019-03-03T11:52:57.272Z,21.24
2019-03-03T11:55:49.504Z,24.33
2019-03-03T11:58:44.825Z,26.73
2019-03-03T12:01:34.048Z,27.45
2019-03-03T12:04:27.954Z,25.24
2019-03-03T12:07:08.602Z,23.62
2019-03-03T12:09:48.276Z,23.04
2019-03-03T12:12:40.867Z,23.39
2019-03-03T12:15:30.536Z,22.70
2019-03-03T12:18:19.513Z,21.85
2019-03-03T12:20:59.996Z,21.14
2019-03-03T12:23:48.275Z,19.88
2019-03-03T12:26:40.697Z,18.79
2019-03-03T12:29:33.411Z,18.49
2019-03-03T12:32:28.782Z,18.20
2019-03-03T12:35:12.936Z,17.05
2019-03-03T12:38:01.197Z,16.71
2019-03-03T12:40:53.922Z,16.98
2019-03-03T12:43:34.018Z,17.03
2019-03-03T12:46:25.568Z,17.10
2019-03-03T12:49:17.968Z,17.04
2019-03-03T12:52:19.951Z,16.67
2019-03-03T12:55:18.330Z,16.40
2019-03-03T12:58:10.610Z,16.23
2019-03-03T13:00:58.819Z,15.97
2019-03-03T13:03:42.671Z,15.65
2019-03-03T13:06:24.623Z,15.51
2019-03-03T13:09:13.123Z,16.03
2019-03-03T13:11:56.982Z,16.21
2019-03-03T13:14:52.782Z,16.21
2019-03-03T13:17:50.852Z,16.08
2019-03-03T13:20:48.206Z,16.17
2019-03-03T13:23:36.215Z,16.49
2019-03-03T13:26:18.906Z,17.32
2019-03-03T13:29:07.017Z,18.03
2019-03-03T13:31:53.628Z,18.01
2019-03-03T13:34:41.548Z,17.44
2019-03-03T13:37:31.128Z,16.77
2019-03-03T13:40:20.804Z,16.53
2019-03-03T13:42:59.934Z,16.37
2019-03-03T13:45:32.752Z,16.52
2019-03-03T13:48:03.380Z,16.21
2019-03-03T13:50:34.182Z,16.23
2019-03-03T13:53:04.922Z,16.55
2019-03-03T13:55:35.577Z,16.76
2019-03-03T13:58:05.911Z,17.42
2019-03-03T14:00:36.888Z,19.20
2019-03-03T14:03:07.081Z,19.62
2019-03-03T14:05:37.943Z,21.81
2019-03-03T14:08:08.228Z,22.64
2019-03-03T14:10:39.143Z,24.72
2019-03-03T14:13:09.505Z,25.34
2019-03-03T14:15:40.037Z,27.19
2019-03-03T14:18:10.523Z,27.05
2019-03-03T14:20:40.824Z,25.72
2019-03-03T14:23:11.095Z,26.79
2019-03-03T14:25:41.290Z,27.78
2019-03-03T14:28:11.911Z,28.93
2019-03-03T14:30:42.135Z,25.66
2019-03-03T14:33:13.088Z,23.39
2019-03-03T14:35:43.720Z,21.41
2019-03-03T14:38:14.247Z,20.10
2019-03-03T14:40:44.796Z,19.31
2019-03-03T14:43:15.307Z,18.59
2019-03-03T14:45:45.512Z,18.17
2019-03-03T14:48:15.783Z,17.89
2019-03-03T14:50:46.395Z,17.61
2019-03-03T14:53:16.914Z,17.35
2019-03-03T14:55:47.119Z,16.85
2019-03-03T14:58:17.401Z,16.21
2019-03-03T15:00:47.724Z,15.71
2019-03-03T15:03:17.910Z,15.38
2019-03-03T15:05:48.145Z,15.43
2019-03-03T15:08:18.440Z,15.33
2019-03-03T15:10:48.631Z,15.20
2019-03-03T15:13:18.935Z,15.08
2019-03-03T15:15:49.551Z,15.07
2019-03-03T15:18:20.059Z,15.03
2019-03-03T15:20:51.000Z,14.95
2019-03-03T15:23:21.253Z,14.83
2019-03-03T15:25:51.534Z,14.81
2019-03-03T15:28:21.802Z,14.72
2019-03-03T15:30:53.016Z,14.58
2019-03-03T15:33:23.268Z,14.46
2019-03-03T15:35:53.555Z,14.57
2019-03-03T15:38:23.828Z,14.55
2019-03-03T15:40:54.125Z,14.53
2019-03-03T15:43:24.466Z,14.55
2019-03-03T15:45:55.733Z,14.56
2019-03-03T15:48:25.939Z,14.50
2019-03-03T15:50:56.539Z,14.44
2019-03-03T15:53:27.721Z,14.28
2019-03-03T15:55:57.993Z,14.17
2019-03-03T15:58:28.264Z,14.11
2019-03-03T16:00:58.637Z,14.02
2019-03-03T16:03:29.536Z,13.96
2019-03-03T16:05:59.883Z,13.94
2019-03-03T16:08:30.071Z,13.91
2019-03-03T16:11:00.644Z,13.87
2019-03-03T16:13:30.920Z,13.75
2019-03-03T16:16:02.206Z,13.68
2019-03-03T16:18:33.079Z,13.63
2019-03-03T16:21:03.709Z,13.57
2019-03-03T16:23:33.921Z,13.56
2019-03-03T16:26:04.791Z,13.53
2019-03-03T16:28:35.364Z,13.56
2019-03-03T16:31:05.547Z,13.56
2019-03-03T16:33:35.814Z,13.61
2019-03-03T16:36:06.483Z,13.59
2019-03-03T16:38:36.671Z,13.64
2019-03-03T16:41:07.453Z,13.72
2019-03-03T16:43:38.067Z,13.77
2019-03-03T16:46:08.318Z,13.75
2019-03-03T16:48:39.031Z,13.68
2019-03-03T16:51:09.275Z,13.67
2019-03-03T16:53:40.579Z,13.50
2019-03-03T16:56:10.848Z,13.33
2019-03-03T16:58:42.177Z,13.13
2019-03-03T17:01:12.470Z,12.90
2019-03-03T17:03:42.769Z,12.62
2019-03-03T17:06:13.395Z,12.36
2019-03-03T17:08:44.120Z,12.10
2019-03-03T17:11:14.443Z,11.86
2019-03-03T17:13:44.919Z,11.64
2019-03-03T17:16:15.235Z,11.44
2019-03-03T17:18:47.031Z,11.21
2019-03-03T17:21:17.966Z,10.98
2019-03-03T17:23:48.703Z,10.77
2019-03-03T17:26:18.913Z,10.59
2019-03-03T17:28:49.159Z,10.42
2019-03-03T17:31:19.414Z,10.29
2019-03-03T17:33:50.300Z,10.16
2019-03-03T17:36:20.580Z,10.03
2019-03-03T17:38:51.664Z,9.90
2019-03-03T17:41:22.433Z,9.86
2019-03-03T17:43:53.100Z,9.75
2019-03-03T17:46:24.457Z,9.71
2019-03-03T17:48:54.954Z,9.68
2019-03-03T17:51:25.547Z,9.59
2019-03-03T17:53:56.180Z,9.56
2019-03-03T17:56:26.719Z,9.51
2019-03-03T17:58:57.753Z,9.47
2019-03-03T18:01:28.397Z,9.51
2019-03-03T18:03:59.554Z,9.49
2019-03-03T18:06:38.553Z,9.68
2019-03-03T18:09:01.820Z,9.53
2019-03-03T18:11:34.249Z,9.53
2019-03-03T18:14:04.487Z,9.47
2019-03-03T18:16:35.244Z,9.43
2019-03-03T18:19:05.980Z,9.27
2019-03-03T18:21:36.246Z,9.10
2019-03-03T18:24:09.488Z,8.95
2019-03-03T18:26:39.660Z,8.88
2019-03-03T18:29:10.252Z,8.84
2019-03-03T18:31:46.452Z,8.75
2019-03-03T18:34:16.652Z,8.72
2019-03-03T18:36:47.353Z,8.79
2019-03-03T18:39:17.731Z,8.85
2019-03-03T18:41:47.943Z,9.10
2019-03-03T18:44:18.556Z,9.18
2019-03-03T18:46:49.512Z,9.14
2019-03-03T18:49:20.223Z,9.13
2019-03-03T18:51:50.472Z,9.10
2019-03-03T18:54:20.863Z,9.09
2019-03-03T18:56:51.704Z,9.19
2019-03-03T18:59:22.061Z,9.22
2019-03-03T19:01:52.628Z,9.27
2019-03-03T19:04:22.877Z,9.35
2019-03-03T19:06:53.260Z,9.43
2019-03-03T19:09:23.620Z,9.51
2019-03-03T19:11:54.267Z,9.53
2019-03-03T19:14:28.502Z,9.53
2019-03-03T19:16:57.520Z,9.55
2019-03-03T19:19:29.072Z,9.53
2019-03-03T19:21:59.658Z,9.49
2019-03-03T19:24:30.276Z,9.45
2019-03-03T19:27:01.445Z,9.47
2019-03-03T19:29:32.077Z,9.51
2019-03-03T19:32:03.039Z,9.58
2019-03-03T19:34:33.261Z,9.60
2019-03-03T19:37:03.828Z,9.60
2019-03-03T19:39:34.497Z,9.59
2019-03-03T19:42:04.972Z,9.58
2019-03-03T19:44:35.269Z,9.59
2019-03-03T19:47:05.728Z,9.57
2019-03-03T19:49:36.409Z,9.58
2019-03-03T19:52:07.015Z,9.56
2019-03-03T19:54:37.641Z,9.56
2019-03-03T19:57:08.647Z,9.57
2019-03-03T19:59:38.940Z,9.58
2019-03-03T20:02:09.221Z,9.67
2019-03-03T20:04:39.491Z,9.69
2019-03-03T20:07:10.397Z,9.64
2019-03-03T20:09:40.638Z,9.54
2019-03-03T20:12:11.210Z,9.52
2019-03-03T20:14:42.733Z,9.50
2019-03-03T20:17:13.667Z,9.51
2019-03-03T20:19:44.303Z,9.62
2019-03-03T20:22:15.242Z,9.72
2019-03-03T20:24:45.898Z,9.68
2019-03-03T20:27:17.361Z,9.68
2019-03-03T20:29:48.605Z,9.60
2019-03-03T20:32:19.281Z,9.60
2019-03-03T20:34:49.696Z,9.55
2019-03-03T20:37:20.161Z,9.49
2019-03-03T20:39:51.120Z,9.41
2019-03-03T20:42:21.471Z,9.41
2019-03-03T20:44:51.839Z,9.39
2019-03-03T20:47:23.492Z,9.39
2019-03-03T20:49:54.036Z,9.36
2019-03-03T20:52:24.656Z,9.34
2019-03-03T20:54:55.257Z,9.33
2019-03-03T20:57:25.776Z,9.31
2019-03-03T20:59:56.351Z,9.29
2019-03-03T21:02:27.003Z,9.29
2019-03-03T21:04:57.583Z,9.32
2019-03-03T21:07:28.396Z,9.31
2019-03-03T21:09:59.295Z,9.38
2019-03-03T21:12:29.575Z,9.43
2019-03-03T21:14:59.859Z,9.46
2019-03-03T21:17:30.858Z,9.46
2019-03-03T21:20:01.196Z,9.47
2019-03-03T21:22:31.926Z,9.44
2019-03-03T21:25:02.522Z,9.40
2019-03-03T21:27:32.730Z,9.30
2019-03-03T21:30:03.363Z,9.11
2019-03-03T21:32:33.803Z,8.88
2019-03-03T21:35:04.311Z,8.71
2019-03-03T21:37:34.489Z,8.56
2019-03-03T21:40:05.220Z,8.44
2019-03-03T21:42:37.104Z,8.39
2019-03-03T21:45:08.716Z,8.35
2019-03-03T21:47:39.594Z,8.20
2019-03-03T21:50:12.398Z,8.05
2019-03-03T21:52:46.673Z,7.94
2019-03-03T21:55:17.432Z,7.88
2019-03-03T21:57:48.048Z,7.89
2019-03-03T22:00:26.692Z,7.77
2019-03-03T22:02:56.970Z,7.76
2019-03-03T22:05:27.228Z,7.63
2019-03-03T22:07:57.485Z,7.60
2019-03-03T22:10:31.828Z,7.59
2019-03-03T22:13:07.147Z,7.44
2019-03-03T22:15:37.977Z,7.39
2019-03-03T22:18:08.594Z,7.36
2019-03-03T22:20:39.959Z,7.43
2019-03-03T22:23:10.263Z,7.44
2019-03-03T22:25:41.545Z,7.40
2019-03-03T22:28:12.440Z,7.35
2019-03-03T22:30:42.657Z,7.30
2019-03-03T22:33:13.186Z,7.20
2019-03-03T22:35:44.034Z,7.05
2019-03-03T22:38:15.098Z,6.95
2019-03-03T22:40:45.668Z,6.91
2019-03-03T22:43:15.870Z,6.85
2019-03-03T22:45:46.455Z,6.80
2019-03-03T22:48:17.407Z,6.73
2019-03-03T22:50:47.764Z,6.69
2019-03-03T22:53:18.431Z,6.58
2019-03-03T22:55:48.995Z,6.59
2019-03-03T22:58:20.131Z,6.49
2019-03-03T23:01:10.040Z,6.32
2019-03-03T23:03:47.569Z,6.32
2019-03-03T23:06:37.877Z,6.24
2019-03-03T23:09:39.563Z,6.14
2019-03-03T23:12:20.531Z,6.05
2019-03-03T23:15:18.584Z,6.15
2019-03-03T23:18:16.287Z,6.19
2019-03-03T23:21:11.753Z,6.19
2019-03-03T23:24:17.240Z,6.29
2019-03-03T23:26:48.151Z,6.25
2019-03-03T23:29:18.449Z,6.17
2019-03-03T23:31:48.794Z,6.18
2019-03-03T23:34:19.457Z,6.12
2019-03-03T23:36:49.694Z,6.04
2019-03-03T23:39:20.210Z,6.15
2019-03-03T23:41:50.451Z,6.18
2019-03-03T23:44:20.736Z,6.16
2019-03-03T23:46:51.118Z,6.09
2019-03-03T23:49:21.440Z,6.15
2019-03-03T23:51:51.731Z,6.20
2019-03-03T23:54:22.055Z,6.10
2019-03-03T23:56:52.451Z,6.03
2019-03-03T23:59:22.748Z,5.88
